»·PEaware :: UAL548 KDEN-KFAT

UAL548 :: KDEN-KFAT

FLIGHT INFORMATION

Flight Status: Arrived
Operator:
United Airlines
More flights by this operator :: More flights under this callsign
Pilot: Zack E. (20674)
Aircraft: AIRBUS A319
(A319)
More flights by this aircraft type
Origin: KDEN Denver Intl
United States
Destination: KFAT Fresno Yosemite Intl
United States
More flights between these airports :: More routes between these airports
Route: COORZ6 VOAXA Q136 OAL NTELL
File this flight plan on PilotEdge
Remarks:
Altitude:
(Current/Filed)
36,000ft
Speed:
(Current/Filed)
430kts
Departed: 12-Jun-21 10:10 AM
Arrived: 12-Jun-21 12:08 PM
Distance/Time
Traveled:
731nm/1:57
Distance/Time
To Go:
Arrived

Flight Plot

Page will automatically refresh every two minutes.

Flight plan parsing failed; only flown route is shown


Map Options




Map Legend


Flown Route
Filed Route
Departure Airport
Arrival Airport
Navaid (VOR, NDB)
Fix

Horizontal Profiles

Position Reports

Time Latitude Longitude Heading Altitude Ground
Speed
12-Jun-21 09:44 39.859465 -104.679467 170 5442ft 0kts
12-Jun-21 09:45 39.859465 -104.679467 170 5442ft 0kts
12-Jun-21 09:46 39.859465 -104.679467 170 5442ft 0kts
12-Jun-21 09:47 39.859465 -104.679467 170 5442ft 0kts
12-Jun-21 09:48 39.859465 -104.679467 170 5442ft 0kts
12-Jun-21 09:49 39.859465 -104.679467 170 5442ft 0kts
12-Jun-21 09:50 39.859465 -104.679467 170 5442ft 0kts
12-Jun-21 09:50 39.859465 -104.679467 170 5442ft 0kts
12-Jun-21 09:52 39.859465 -104.679467 170 5442ft 0kts
12-Jun-21 09:53 39.859465 -104.679467 170 5442ft 0kts
12-Jun-21 09:53 39.859465 -104.679467 170 5442ft 0kts
12-Jun-21 09:55 39.859465 -104.679467 170 5442ft 0kts
12-Jun-21 09:56 39.859465 -104.679467 170 5442ft 0kts
12-Jun-21 09:56 39.859465 -104.679467 170 5442ft 0kts
12-Jun-21 09:58 39.859860 -104.679344 218 5442ft 2kts
12-Jun-21 09:59 39.860050 -104.678712 273 5442ft 1kts
12-Jun-21 09:59 39.860050 -104.678703 272 5442ft 0kts
12-Jun-21 10:00 39.860050 -104.678703 272 5442ft 0kts
12-Jun-21 10:02 39.860050 -104.678703 272 5442ft 0kts
12-Jun-21 10:02 39.860055 -104.678845 272 5442ft 2kts
12-Jun-21 10:03 39.860688 -104.680928 269 5442ft 9kts
12-Jun-21 10:04 39.858909 -104.683951 180 5442ft 15kts
12-Jun-21 10:05 39.852562 -104.684021 180 5442ft 26kts
12-Jun-21 10:06 39.845629 -104.684107 180 5442ft 24kts
12-Jun-21 10:07 39.841784 -104.684155 180 5442ft 0kts
12-Jun-21 10:08 39.840672 -104.686281 269 5442ft 30kts
12-Jun-21 10:09 39.840891 -104.731755 271 5769ft 179kts
12-Jun-21 10:10 39.841454 -104.800970 270 7417ft 205kts
12-Jun-21 10:11 39.842388 -104.887407 269 8692ft 273kts
12-Jun-21 10:12 39.844670 -104.994502 270 10829ft 312kts
12-Jun-21 10:13 39.847705 -105.118646 270 12460ft 362kts
12-Jun-21 10:14 39.850774 -105.251157 270 15119ft 373kts
12-Jun-21 10:15 39.853866 -105.389329 270 17357ft 388kts
12-Jun-21 10:16 39.856714 -105.531677 270 19499ft 400kts
12-Jun-21 10:17 39.859496 -105.678740 269 21430ft 413kts
12-Jun-21 10:18 39.850817 -105.829915 262 23210ft 424kts
12-Jun-21 10:19 39.837394 -105.984218 261 24899ft 435kts
12-Jun-21 10:20 39.823502 -106.142177 261 26488ft 443kts
12-Jun-21 10:21 39.809280 -106.301788 261 28175ft 443kts
12-Jun-21 10:22 39.795084 -106.459026 261 29973ft 436kts
12-Jun-21 10:23 39.779640 -106.614516 260 31505ft 430kts
12-Jun-21 10:24 39.762809 -106.767433 260 32860ft 425kts
12-Jun-21 10:25 39.746132 -106.918601 260 34070ft 421kts
12-Jun-21 10:26 39.729440 -107.067986 260 35176ft 415kts
12-Jun-21 10:27 39.712834 -107.214945 260 36117ft 410kts
12-Jun-21 10:28 39.695947 -107.362635 260 36273ft 419kts
12-Jun-21 10:29 39.678690 -107.511943 260 36273ft 420kts
12-Jun-21 10:30 39.661147 -107.661913 259 36287ft 420kts
12-Jun-21 10:31 39.643501 -107.811537 259 36310ft 420kts
12-Jun-21 10:32 39.625590 -107.961346 259 36336ft 420kts
12-Jun-21 10:33 39.607493 -108.110948 259 36334ft 420kts
12-Jun-21 10:34 39.589205 -108.260340 259 36248ft 420kts
12-Jun-21 10:35 39.570664 -108.409898 259 36200ft 421kts
12-Jun-21 10:36 39.552014 -108.558907 259 36191ft 420kts
12-Jun-21 10:37 39.533143 -108.708260 259 36187ft 420kts
12-Jun-21 10:38 39.514168 -108.857123 259 36183ft 420kts
12-Jun-21 10:39 39.494943 -109.006058 259 36186ft 420kts
12-Jun-21 10:40 39.475462 -109.155280 259 36266ft 420kts
12-Jun-21 10:41 39.455907 -109.303634 259 36350ft 420kts
12-Jun-21 10:42 39.436057 -109.452591 259 36363ft 420kts
12-Jun-21 10:43 39.416098 -109.600956 259 36363ft 420kts
12-Jun-21 10:44 39.395871 -109.750090 259 36363ft 421kts
12-Jun-21 10:45 39.375491 -109.898557 259 36363ft 421kts
12-Jun-21 10:46 39.355192 -110.047749 259 36332ft 421kts
12-Jun-21 10:47 39.335281 -110.196525 259 36249ft 421kts
12-Jun-21 10:48 39.315137 -110.345104 259 36221ft 420kts
12-Jun-21 10:49 39.294832 -110.493325 259 36219ft 420kts
12-Jun-21 10:50 39.274266 -110.641907 259 36219ft 419kts
12-Jun-21 10:51 39.253627 -110.789930 258 36219ft 419kts
12-Jun-21 10:52 39.232775 -110.937588 258 36219ft 419kts
12-Jun-21 10:53 39.211826 -111.085363 258 36222ft 419kts
12-Jun-21 10:54 39.190659 -111.232840 258 36226ft 419kts
12-Jun-21 10:55 39.169339 -111.379914 258 36226ft 418kts
12-Jun-21 10:56 39.147853 -111.526755 258 36227ft 418kts
12-Jun-21 10:57 39.126183 -111.673505 258 36227ft 418kts
12-Jun-21 10:58 39.104371 -111.820285 258 36226ft 418kts
12-Jun-21 10:59 39.082307 -111.967017 258 36218ft 418kts
12-Jun-21 11:00 39.060087 -112.113382 258 36198ft 417kts
12-Jun-21 11:01 39.037610 -112.259974 258 36191ft 417kts
12-Jun-21 11:02 39.015021 -112.406044 258 36192ft 417kts
12-Jun-21 11:03 38.992378 -112.552042 258 36194ft 417kts
12-Jun-21 11:04 38.969484 -112.697920 257 36197ft 417kts
12-Jun-21 11:05 38.946347 -112.844245 257 36198ft 417kts
12-Jun-21 11:06 38.923073 -112.989839 257 36193ft 417kts
12-Jun-21 11:07 38.899582 -113.135550 257 36184ft 417kts
12-Jun-21 11:08 38.875419 -113.281499 257 36182ft 418kts
12-Jun-21 11:09 38.851375 -113.427655 257 36182ft 418kts
12-Jun-21 11:10 38.827261 -113.573494 257 36182ft 418kts
12-Jun-21 11:11 38.803022 -113.719280 256 36182ft 418kts
12-Jun-21 11:12 38.778575 -113.864950 256 36182ft 418kts
12-Jun-21 11:13 38.753933 -114.010394 256 36182ft 418kts
12-Jun-21 11:14 38.729064 -114.156015 256 36193ft 420kts
12-Jun-21 11:15 38.704022 -114.301473 256 36213ft 419kts
12-Jun-21 11:16 38.678770 -114.447006 256 36217ft 419kts
12-Jun-21 11:17 38.653299 -114.592662 256 36209ft 419kts
12-Jun-21 11:18 38.627722 -114.738106 256 36209ft 419kts
12-Jun-21 11:19 38.601994 -114.883181 256 36209ft 419kts
12-Jun-21 11:20 38.575904 -115.028793 256 36209ft 420kts
12-Jun-21 11:21 38.549748 -115.173925 256 36213ft 421kts
12-Jun-21 11:22 38.523247 -115.319858 256 36217ft 421kts
12-Jun-21 11:23 38.496678 -115.464953 256 36217ft 422kts
12-Jun-21 11:24 38.469780 -115.610745 256 36218ft 423kts
12-Jun-21 11:25 38.442683 -115.756875 255 36217ft 424kts
12-Jun-21 11:26 38.415373 -115.902876 255 36217ft 424kts
12-Jun-21 11:27 38.387706 -116.049476 255 36215ft 424kts
12-Jun-21 11:28 38.359950 -116.195368 255 36207ft 424kts
12-Jun-21 11:29 38.331748 -116.341026 253 36203ft 424kts
12-Jun-21 11:30 38.299574 -116.485105 253 36199ft 423kts
12-Jun-21 11:31 38.267074 -116.629088 253 36196ft 423kts
12-Jun-21 11:32 38.234520 -116.772801 252 36191ft 422kts
12-Jun-21 11:33 38.201796 -116.916076 252 36191ft 423kts
12-Jun-21 11:34 38.168780 -117.059510 252 36193ft 422kts
12-Jun-21 11:35 38.135597 -117.202602 252 36198ft 423kts
12-Jun-21 11:36 38.102564 -117.345405 252 36198ft 423kts
12-Jun-21 11:37 38.069401 -117.488861 252 36198ft 423kts
12-Jun-21 11:38 38.036036 -117.631782 252 36199ft 423kts
12-Jun-21 11:39 37.997072 -117.772444 243 36198ft 423kts
12-Jun-21 11:40 37.938079 -117.900681 236 36198ft 423kts
12-Jun-21 11:41 37.874334 -118.026014 236 36187ft 423kts
12-Jun-21 11:42 37.810611 -118.150542 236 36166ft 423kts
12-Jun-21 11:43 37.746849 -118.275225 236 35967ft 417kts
12-Jun-21 11:44 37.685090 -118.395650 236 33957ft 409kts
12-Jun-21 11:45 37.623023 -118.516198 236 31515ft 412kts
12-Jun-21 11:46 37.560346 -118.637508 236 28945ft 417kts
12-Jun-21 11:47 37.496827 -118.760414 235 26145ft 423kts
12-Jun-21 11:48 37.432604 -118.883952 235 24146ft 422kts
12-Jun-21 11:49 37.368401 -119.006835 235 22683ft 418kts
12-Jun-21 11:50 37.306352 -119.125165 235 19685ft 398kts
12-Jun-21 11:51 37.246355 -119.239178 235 17942ft 387kts
12-Jun-21 11:52 37.189866 -119.346196 235 16117ft 342kts
12-Jun-21 11:53 37.140579 -119.439232 235 14510ft 307kts
12-Jun-21 11:54 37.093658 -119.527534 235 12963ft 303kts
12-Jun-21 11:55 37.037288 -119.600392 189 11331ft 299kts
12-Jun-21 11:56 36.958850 -119.591021 172 10258ft 275kts
12-Jun-21 11:57 36.883156 -119.577684 172 8263ft 271kts
12-Jun-21 11:58 36.808970 -119.564512 172 6273ft 268kts
12-Jun-21 11:59 36.736659 -119.557985 206 4332ft 251kts
12-Jun-21 12:00 36.726603 -119.629491 302 2097ft 227kts
12-Jun-21 12:01 36.763148 -119.693599 304 1797ft 251kts
12-Jun-21 12:02 36.778946 -119.761029 226 1951ft 203kts
12-Jun-21 12:03 36.735226 -119.763955 129 1837ft 162kts
12-Jun-21 12:04 36.714688 -119.717744 70 1769ft 155kts
12-Jun-21 12:05 36.749593 -119.685522 351 1127ft 152kts
12-Jun-21 12:06 36.777713 -119.719077 304 342ft 83kts
12-Jun-21 12:07 36.779451 -119.724316 214 341ft 0kts
12-Jun-21 12:08 36.777357 -119.726126 197 341ft 14kts
12-Jun-21 12:09 36.773577 -119.720067 124 341ft 27kts
12-Jun-21 12:10 36.770881 -119.717854 315 341ft 8kts

Navigation Log

Ident Type
Flight plan parsing failed, navigation log unavailable